Главная страница
METAR-TAF:

METAR-TAF

Аэропорты :

Кувейт, Кувейт

широта: 29-13N, долгота: 047-59E, высота над уровнем моря: 55 м

Текущие метеонаблюдения

Эта сводка был подготовлена 35 минут назад, в 13:00 UTC
Ветер 14 Узел от северно-северо-западный
Температура 44°C
Влажность 11%
Давление 996 hPa
Видимость: 4000 м
ясное небо
(Слабый) пыль, взвешенная над обширной территорией

METAR: OKBK 141300Z 33014KT 4000 -DU SKC 44/07 Q0996 NOSIG

Время: 16:35 (13:35 UTC)

Прогноз

Эта сводка был подготовлена 2 часа и 50 минут назад, в 10:45 UTC
Прогноз действительный с 14-го 12 UTC до 15-го 18 UTC
Ветер 15 Узел от северно-северо-западный
Видимость: 7000 м
ясное небо

TAF: OKBK 141045Z 1412/1518 34015KT 7000 SKC

Метеонаблюдения и прогнозы для более 4000 аэропортов (сводки METAR и TAF).

Имеющиеся станции представлены на карте желтыми и красными точками.

Чтобы увидеть название станции, наведите на нее мышь.

Затем щелкните, чтобы увидеть метеонаблюдения и метеопрогнозы.

Управление картой: чтобы увеличить масштаб, щелкните зеленые кнопки с черным крестиком; чтобы уменьшить масштаб, щелкните зеленую кнопку с тире; для просмотра соседних карт щелкайте зеленые стрелки.


METAR-TAF: